createdAt,value
2023-04-21T00:01:19.738Z,12.07
2023-04-21T00:03:48.012Z,12.00
2023-04-21T00:06:22.441Z,11.63
2023-04-21T00:08:50.903Z,11.07
2023-04-21T00:11:18.604Z,11.87
2023-04-21T00:13:45.986Z,11.97
2023-04-21T00:16:13.099Z,11.83
2023-04-21T00:18:40.236Z,11.30
2023-04-21T00:21:07.128Z,11.80
2023-04-21T00:23:34.253Z,12.03
2023-04-21T00:26:02.925Z,11.53
2023-04-21T00:28:30.373Z,11.70
2023-04-21T00:30:58.636Z,11.93
2023-04-21T00:33:26.397Z,12.37
2023-04-21T00:35:56.893Z,10.97
2023-04-21T00:38:23.996Z,11.67
2023-04-21T00:40:51.039Z,11.57
2023-04-21T00:43:18.207Z,11.40
2023-04-21T00:45:48.960Z,11.50
2023-04-21T00:48:17.680Z,11.63
2023-04-21T00:50:45.599Z,10.47
2023-04-21T00:53:14.646Z,10.47
2023-04-21T00:55:41.902Z,11.00
2023-04-21T00:58:09.282Z,10.27
2023-04-21T01:00:36.583Z,9.80
2023-04-21T01:03:06.444Z,10.67
2023-04-21T01:05:33.867Z,10.13
2023-04-21T01:08:02.875Z,9.77
2023-04-21T01:10:30.159Z,10.33
2023-04-21T01:12:57.182Z,9.57
2023-04-21T01:15:27.537Z,10.20
2023-04-21T01:17:54.655Z,10.20
2023-04-21T01:20:21.840Z,10.30
2023-04-21T01:22:51.286Z,10.10
2023-04-21T01:25:18.986Z,9.63
2023-04-21T01:27:46.117Z,10.10
2023-04-21T01:30:13.265Z,9.87
2023-04-21T01:32:40.412Z,10.30
2023-04-21T01:35:08.707Z,9.90
2023-04-21T01:37:38.736Z,9.73
2023-04-21T01:40:09.150Z,9.83
2023-04-21T01:42:39.546Z,9.57
2023-04-21T01:45:07.597Z,10.27
2023-04-21T01:47:34.798Z,10.10
2023-04-21T01:50:01.956Z,9.30
2023-04-21T01:52:28.905Z,9.67
2023-04-21T01:54:56.056Z,10.00
2023-04-21T01:57:23.097Z,10.50
2023-04-21T01:59:51.437Z,10.17
2023-04-21T02:02:18.810Z,10.13
2023-04-21T02:04:45.891Z,10.40
2023-04-21T02:07:12.808Z,9.30
2023-04-21T02:09:41.349Z,9.60
2023-04-21T02:12:08.709Z,9.63
2023-04-21T02:14:37.834Z,10.23
2023-04-21T02:17:07.509Z,10.10
2023-04-21T02:19:34.999Z,9.30
2023-04-21T02:22:02.064Z,9.67
2023-04-21T02:24:28.952Z,10.70
2023-04-21T02:26:57.842Z,10.80
2023-04-21T02:29:24.822Z,9.60
2023-04-21T02:32:02.917Z,10.53
2023-04-21T02:34:32.670Z,10.30
2023-04-21T02:36:59.923Z,10.90
2023-04-21T02:39:27.125Z,11.77
2023-04-21T02:41:54.204Z,11.50
2023-04-21T02:44:21.324Z,11.07
2023-04-21T02:46:48.342Z,11.13
2023-04-21T02:49:15.439Z,11.23
2023-04-21T02:51:42.444Z,10.40
2023-04-21T02:54:09.523Z,10.80
2023-04-21T02:56:36.557Z,10.63
2023-04-21T02:59:03.563Z,10.60
2023-04-21T03:01:30.470Z,10.93
2023-04-21T03:03:57.596Z,11.80
2023-04-21T03:06:24.587Z,10.97
2023-04-21T03:08:52.282Z,12.03
2023-04-21T03:11:19.265Z,11.03
2023-04-21T03:13:46.192Z,11.90
2023-04-21T03:16:13.606Z,12.60
2023-04-21T03:18:40.736Z,12.40
2023-04-21T03:21:07.678Z,12.10
2023-04-21T03:23:34.968Z,12.67
2023-04-21T03:26:09.348Z,12.97
2023-04-21T03:28:36.403Z,13.07
2023-04-21T03:31:03.736Z,12.63
2023-04-21T03:33:30.848Z,12.57
2023-04-21T03:35:57.787Z,13.37
2023-04-21T03:38:24.891Z,13.17
2023-04-21T03:40:51.840Z,13.40
2023-04-21T03:43:19.212Z,12.37
2023-04-21T03:45:46.516Z,12.73
2023-04-21T03:48:13.544Z,13.77
2023-04-21T03:50:40.633Z,13.43
2023-04-21T03:53:07.573Z,13.13
2023-04-21T03:55:34.604Z,11.93
2023-04-21T03:58:01.566Z,13.33
2023-04-21T04:00:28.515Z,12.83
2023-04-21T04:02:55.631Z,13.67
2023-04-21T04:05:22.730Z,12.53
2023-04-21T04:07:49.769Z,13.20
2023-04-21T04:10:16.799Z,12.53
2023-04-21T04:12:43.822Z,14.60
2023-04-21T04:15:10.919Z,11.90
2023-04-21T04:17:37.965Z,13.90
2023-04-21T04:20:08.332Z,13.13
2023-04-21T04:22:35.904Z,12.87
2023-04-21T04:25:03.666Z,14.00
2023-04-21T04:27:30.908Z,13.83
2023-04-21T04:29:57.792Z,13.57
2023-04-21T04:32:28.539Z,13.13
2023-04-21T04:34:55.912Z,14.23
2023-04-21T04:37:22.969Z,14.37
2023-04-21T04:39:53.398Z,14.37
2023-04-21T04:42:20.471Z,13.63
2023-04-21T04:44:47.593Z,13.43
2023-04-21T04:47:14.458Z,13.17
2023-04-21T04:49:41.369Z,14.97
2023-04-21T04:52:08.236Z,14.23
2023-04-21T04:54:35.253Z,13.53
2023-04-21T04:57:02.524Z,12.60
2023-04-21T04:59:30.841Z,14.07
2023-04-21T05:01:58.036Z,14.03
2023-04-21T05:04:25.583Z,13.50
2023-04-21T05:06:52.785Z,13.57
2023-04-21T05:09:19.680Z,13.57
2023-04-21T05:11:46.617Z,12.97
2023-04-21T05:14:13.632Z,13.90
2023-04-21T05:16:40.656Z,12.63
2023-04-21T05:19:07.564Z,13.10
2023-04-21T05:21:34.448Z,13.33
2023-04-21T05:24:01.533Z,12.67
2023-04-21T05:26:29.411Z,11.57
2023-04-21T05:28:57.539Z,11.87
2023-04-21T05:31:25.095Z,12.20
2023-04-21T05:33:52.224Z,11.40
2023-04-21T05:36:20.433Z,12.20
2023-04-21T05:38:47.646Z,12.87
2023-04-21T05:41:14.585Z,11.27
2023-04-21T05:43:41.580Z,12.20
2023-04-21T05:46:11.462Z,11.57
2023-04-21T05:48:38.645Z,11.70
2023-04-21T05:51:13.854Z,11.40
2023-04-21T05:53:41.436Z,11.20
2023-04-21T05:56:12.470Z,11.73
2023-04-21T05:58:39.757Z,11.57
2023-04-21T06:01:06.697Z,11.73
2023-04-21T06:03:34.595Z,11.17
2023-04-21T06:06:04.115Z,11.97
2023-04-21T06:08:31.288Z,11.23
2023-04-21T06:10:58.439Z,11.37
2023-04-21T06:13:27.493Z,11.07
2023-04-21T06:15:55.082Z,11.80
2023-04-21T06:18:22.450Z,10.93
2023-04-21T06:20:56.032Z,11.50
2023-04-21T06:23:22.966Z,11.40
2023-04-21T06:26:05.270Z,10.53
2023-04-21T06:28:33.455Z,10.87
2023-04-21T06:31:01.664Z,10.03
2023-04-21T06:33:29.827Z,10.70
2023-04-21T06:35:56.819Z,10.77
2023-04-21T06:38:23.981Z,11.57
2023-04-21T06:40:51.254Z,10.90
2023-04-21T06:43:18.171Z,10.33
2023-04-21T06:45:45.055Z,9.93
2023-04-21T06:48:12.048Z,9.30
2023-04-21T06:50:38.912Z,9.27
2023-04-21T06:53:05.905Z,9.37
2023-04-21T06:55:32.906Z,10.03
2023-04-21T06:57:59.952Z,9.33
2023-04-21T07:00:26.972Z,10.10
2023-04-21T07:02:54.061Z,11.00
2023-04-21T07:05:20.959Z,10.27
2023-04-21T07:07:47.896Z,10.10
2023-04-21T07:10:19.300Z,10.27
2023-04-21T07:12:46.609Z,10.23
2023-04-21T07:15:13.700Z,10.37
2023-04-21T07:17:40.665Z,10.57
2023-04-21T07:20:08.126Z,10.83
2023-04-21T07:22:36.163Z,10.73
2023-04-21T07:25:07.133Z,9.90
2023-04-21T07:27:36.281Z,11.00
2023-04-21T07:30:07.111Z,10.07
2023-04-21T07:32:35.197Z,10.23
2023-04-21T07:35:03.040Z,10.33
2023-04-21T07:37:30.088Z,10.63
2023-04-21T07:39:57.084Z,9.70
2023-04-21T07:42:24.523Z,9.23
2023-04-21T07:44:51.452Z,9.97
2023-04-21T07:47:18.578Z,9.47
2023-04-21T07:49:45.644Z,10.03
2023-04-21T07:52:12.659Z,10.17
2023-04-21T07:54:39.600Z,10.10
2023-04-21T07:57:07.297Z,10.40
2023-04-21T07:59:34.228Z,10.00
2023-04-21T08:02:02.090Z,9.83
2023-04-21T08:04:29.415Z,8.97
2023-04-21T08:06:56.532Z,10.43
2023-04-21T08:09:23.575Z,10.30
2023-04-21T08:11:50.577Z,9.63
2023-04-21T08:14:17.781Z,9.70
2023-04-21T08:16:45.092Z,10.47
2023-04-21T08:19:12.185Z,9.90
2023-04-21T08:21:39.799Z,9.80
2023-04-21T08:24:07.105Z,9.97
2023-04-21T08:26:34.916Z,9.50
2023-04-21T08:29:04.387Z,9.93
2023-04-21T08:31:31.780Z,10.17
2023-04-21T08:34:02.798Z,10.30
2023-04-21T08:36:30.707Z,10.30
2023-04-21T08:38:58.633Z,10.23
2023-04-21T08:41:26.300Z,10.50
2023-04-21T08:43:53.241Z,10.30
2023-04-21T08:46:20.890Z,9.93
2023-04-21T08:48:48.059Z,8.67
2023-04-21T08:51:21.684Z,9.07
2023-04-21T08:53:48.709Z,10.87
2023-04-21T08:56:15.660Z,10.40
2023-04-21T08:58:42.659Z,9.83
2023-04-21T09:01:09.614Z,9.73
2023-04-21T09:03:36.756Z,9.67
2023-04-21T09:06:06.180Z,9.07
2023-04-21T09:08:35.020Z,10.63
2023-04-21T09:11:01.998Z,9.70
2023-04-21T09:13:36.811Z,9.50
2023-04-21T09:16:08.539Z,10.30
2023-04-21T09:18:40.403Z,9.73
2023-04-21T09:21:12.589Z,9.47
2023-04-21T09:23:52.524Z,10.40
2023-04-21T09:26:23.163Z,9.70
2023-04-21T09:28:52.038Z,7.83
2023-04-21T09:31:21.227Z,7.53
2023-04-21T09:34:00.241Z,8.67
2023-04-21T09:36:29.811Z,9.10
2023-04-21T09:41:34.609Z,7.77
2023-04-21T09:44:01.760Z,8.20
2023-04-21T09:46:33.491Z,8.90
2023-04-21T09:49:04.594Z,8.13
2023-04-21T09:51:56.296Z,7.63
2023-04-21T09:56:56.449Z,7.23
2023-04-21T09:59:29.984Z,8.63
2023-04-21T10:01:59.896Z,7.57
2023-04-21T10:04:29.097Z,8.00
2023-04-21T10:06:56.715Z,8.47
2023-04-21T10:09:27.445Z,9.13
2023-04-21T10:11:55.801Z,7.93
2023-04-21T10:14:22.929Z,7.70
2023-04-21T10:16:57.514Z,6.83
2023-04-21T10:19:26.681Z,8.03
2023-04-21T10:21:59.919Z,8.47
2023-04-21T10:24:31.035Z,8.97
2023-04-21T10:27:02.224Z,8.50
2023-04-21T10:29:40.091Z,7.23
2023-04-21T10:32:11.395Z,7.57
2023-04-21T10:34:39.119Z,7.67
2023-04-21T10:37:06.157Z,8.13
2023-04-21T10:39:42.416Z,7.70
2023-04-21T10:42:29.524Z,8.77
2023-04-21T10:44:59.685Z,7.97
2023-04-21T10:47:44.122Z,7.47
2023-04-21T10:50:22.120Z,7.47
2023-04-21T10:52:55.477Z,8.17
2023-04-21T10:55:25.487Z,7.77
2023-04-21T10:57:52.488Z,8.77
2023-04-21T11:00:23.025Z,8.60
2023-04-21T11:03:02.862Z,9.13
2023-04-21T11:05:38.834Z,9.23
2023-04-21T11:08:14.701Z,8.40
2023-04-21T11:10:55.945Z,9.03
2023-04-21T11:13:29.311Z,8.27
2023-04-21T11:16:01.431Z,7.33
2023-04-21T11:18:38.634Z,7.73
2023-04-21T11:21:18.384Z,7.10
2023-04-21T11:23:51.461Z,7.40
2023-04-21T11:26:20.279Z,7.33
2023-04-21T11:28:49.535Z,6.43
2023-04-21T11:31:16.676Z,7.07
2023-04-21T11:33:43.694Z,7.17
2023-04-21T11:36:10.660Z,8.37
2023-04-21T11:38:40.031Z,6.63
2023-04-21T11:41:07.988Z,6.43
2023-04-21T11:43:35.030Z,7.47
2023-04-21T11:46:27.389Z,6.57
2023-04-21T11:49:05.826Z,6.57
2023-04-21T11:51:37.782Z,5.97
2023-04-21T11:54:06.982Z,6.67
2023-04-21T11:56:38.385Z,7.03
2023-04-21T11:59:25.806Z,5.03
2023-04-21T12:01:54.524Z,5.20
2023-04-21T12:04:23.329Z,6.60
2023-04-21T12:07:03.338Z,7.30
2023-04-21T12:09:30.809Z,6.47
2023-04-21T12:11:59.040Z,5.77
2023-04-21T12:14:29.196Z,6.67
2023-04-21T12:16:58.120Z,6.23
2023-04-21T12:19:26.550Z,8.43
2023-04-21T12:21:56.699Z,6.57
2023-04-21T12:24:23.784Z,6.17
2023-04-21T12:26:50.956Z,6.73
2023-04-21T12:29:18.096Z,6.80
2023-04-21T12:31:45.080Z,7.30
2023-04-21T12:34:12.125Z,6.53
2023-04-21T12:36:39.105Z,8.30
2023-04-21T12:39:06.387Z,7.13
2023-04-21T12:41:34.711Z,7.23
2023-04-21T12:44:01.711Z,6.23
2023-04-21T12:46:28.865Z,6.13
2023-04-21T12:48:56.191Z,7.33
2023-04-21T12:51:23.175Z,8.97
2023-04-21T12:53:50.630Z,9.37
2023-04-21T12:56:18.062Z,8.67
2023-04-21T12:58:45.367Z,9.17
2023-04-21T13:01:14.816Z,8.47
2023-04-21T13:03:42.728Z,9.33
2023-04-21T13:06:10.480Z,8.33
2023-04-21T13:08:37.799Z,7.50
2023-04-21T13:11:05.313Z,6.73
2023-04-21T13:13:32.308Z,6.07
2023-04-21T13:15:59.270Z,5.10
2023-04-21T13:18:26.202Z,6.20
2023-04-21T13:20:53.118Z,6.53
2023-04-21T13:23:20.097Z,5.23
2023-04-21T13:25:47.116Z,4.90
2023-04-21T13:28:14.449Z,3.80
2023-04-21T13:30:41.583Z,5.83
2023-04-21T13:33:08.715Z,7.17
2023-04-21T13:35:35.795Z,7.53
2023-04-21T13:38:02.740Z,8.20
2023-04-21T13:40:30.038Z,9.20
2023-04-21T13:42:58.824Z,9.70
2023-04-21T13:45:26.534Z,9.83
2023-04-21T13:47:54.137Z,9.37
2023-04-21T13:50:21.866Z,9.90
2023-04-21T13:52:49.082Z,10.57
2023-04-21T13:55:15.980Z,9.97
2023-04-21T13:57:43.084Z,9.47
2023-04-21T14:00:13.429Z,10.23
2023-04-21T14:02:42.039Z,9.47
2023-04-21T14:05:09.572Z,9.47
2023-04-21T14:07:37.653Z,7.50
2023-04-21T14:10:04.791Z,7.40
2023-04-21T14:12:31.812Z,6.17
2023-04-21T14:14:58.631Z,5.97
2023-04-21T14:17:25.669Z,4.10
2023-04-21T14:19:54.464Z,2.70
2023-04-21T14:22:22.242Z,2.83
2023-04-21T14:24:49.330Z,2.87
2023-04-21T14:27:16.427Z,3.27
2023-04-21T14:29:43.375Z,3.03
2023-04-21T14:32:10.348Z,2.40
2023-04-21T14:34:37.310Z,2.37
2023-04-21T14:37:04.379Z,2.00
2023-04-21T14:39:32.646Z,1.77
2023-04-21T14:41:59.773Z,2.43
2023-04-21T14:44:26.645Z,2.20
2023-04-21T14:47:08.472Z,2.40
2023-04-21T14:49:37.840Z,1.97
2023-04-21T14:52:04.939Z,1.50
2023-04-21T14:54:31.964Z,1.60
2023-04-21T14:57:17.694Z,1.90
2023-04-21T14:59:46.875Z,1.50
2023-04-21T15:02:14.359Z,1.83
2023-04-21T15:04:41.764Z,1.43
2023-04-21T15:07:08.823Z,1.63
2023-04-21T15:09:36.682Z,1.70
2023-04-21T15:12:04.007Z,2.10
2023-04-21T15:14:31.109Z,1.67
2023-04-21T15:16:58.188Z,2.03
2023-04-21T15:19:25.734Z,2.00
2023-04-21T15:21:52.891Z,2.03
2023-04-21T15:24:19.931Z,2.20
2023-04-21T15:26:46.868Z,1.77
2023-04-21T15:29:13.924Z,2.30
2023-04-21T15:31:41.145Z,2.40
2023-04-21T15:34:08.265Z,2.97
2023-04-21T15:36:35.726Z,2.80
2023-04-21T15:39:02.723Z,3.20
2023-04-21T15:41:31.506Z,3.23
2023-04-21T15:43:59.950Z,3.07
2023-04-21T15:46:27.089Z,3.10
2023-04-21T15:48:54.300Z,3.57
2023-04-21T15:51:21.236Z,2.93
2023-04-21T15:53:49.381Z,3.77
2023-04-21T15:56:16.804Z,3.50
2023-04-21T15:58:43.899Z,2.90
2023-04-21T16:01:11.133Z,3.20
2023-04-21T16:03:40.280Z,2.87
2023-04-21T16:06:07.844Z,2.93
2023-04-21T16:08:34.985Z,3.53
2023-04-21T16:11:02.134Z,2.83
2023-04-21T16:13:29.534Z,2.20
2023-04-21T16:15:56.721Z,2.60
2023-04-21T16:18:23.901Z,3.00
2023-04-21T16:20:51.335Z,2.67
2023-04-21T16:23:18.672Z,2.43
2023-04-21T16:25:45.665Z,2.60
2023-04-21T16:28:12.727Z,2.67
2023-04-21T16:30:43.476Z,2.60
2023-04-21T16:33:11.375Z,3.13
2023-04-21T16:35:39.345Z,3.13
2023-04-21T16:38:07.022Z,3.17
2023-04-21T16:40:34.234Z,3.30
2023-04-21T16:43:01.512Z,2.97
2023-04-21T16:45:29.121Z,2.77
2023-04-21T16:47:56.794Z,2.40
2023-04-21T16:50:23.923Z,1.90
2023-04-21T16:52:51.175Z,1.57
2023-04-21T16:55:18.569Z,2.03
2023-04-21T16:57:45.717Z,2.10
2023-04-21T17:00:13.771Z,2.70
2023-04-21T17:02:40.961Z,1.80
2023-04-21T17:05:08.514Z,1.93
2023-04-21T17:07:35.544Z,1.90
2023-04-21T17:10:02.468Z,2.10
2023-04-21T17:12:29.434Z,2.63
2023-04-21T17:14:56.363Z,2.20
2023-04-21T17:17:23.877Z,1.97
2023-04-21T17:19:52.325Z,1.93
2023-04-21T17:22:19.295Z,1.90
2023-04-21T17:24:53.092Z,2.07
2023-04-21T17:27:21.471Z,1.87
2023-04-21T17:29:48.522Z,2.07
2023-04-21T17:32:15.549Z,1.80
2023-04-21T17:34:42.754Z,2.27
2023-04-21T17:37:09.786Z,1.83
2023-04-21T17:39:37.296Z,2.90
2023-04-21T17:42:05.070Z,2.63
2023-04-21T17:44:31.957Z,2.43
2023-04-21T17:46:58.926Z,2.50
2023-04-21T17:49:26.548Z,2.60
2023-04-21T17:51:53.460Z,3.13
2023-04-21T17:54:20.372Z,3.20
2023-04-21T17:56:47.521Z,2.47
2023-04-21T17:59:14.425Z,2.50
2023-04-21T18:01:41.477Z,2.43
2023-04-21T18:04:08.724Z,2.10
2023-04-21T18:06:36.378Z,2.20
2023-04-21T18:09:07.260Z,2.50
2023-04-21T18:11:34.324Z,2.57
2023-04-21T18:14:01.353Z,2.63
2023-04-21T18:16:28.441Z,2.60
2023-04-21T18:18:55.945Z,2.23
2023-04-21T18:21:22.876Z,2.53
2023-04-21T18:23:49.756Z,2.37
2023-04-21T18:26:16.737Z,3.20
2023-04-21T18:28:43.569Z,2.60
2023-04-21T18:31:10.561Z,3.10
2023-04-21T18:33:37.541Z,3.00
2023-04-21T18:36:05.078Z,2.47
2023-04-21T18:38:31.922Z,2.27
2023-04-21T18:40:58.895Z,2.27
2023-04-21T18:43:25.991Z,2.20
2023-04-21T18:45:52.952Z,2.50
2023-04-21T18:48:19.928Z,2.23
2023-04-21T18:50:46.945Z,2.20
2023-04-21T18:53:13.906Z,2.40
2023-04-21T18:55:40.961Z,2.30
2023-04-21T18:58:07.785Z,2.53
2023-04-21T19:00:37.562Z,2.60
2023-04-21T19:03:08.908Z,2.17
2023-04-21T19:05:37.742Z,1.80
2023-04-21T19:08:05.297Z,2.00
2023-04-21T19:10:37.521Z,1.90
2023-04-21T19:13:04.812Z,2.07
2023-04-21T19:15:31.955Z,2.30
2023-04-21T19:17:59.080Z,2.53
2023-04-21T19:20:26.088Z,2.27
2023-04-21T19:22:53.057Z,2.23
2023-04-21T19:25:20.105Z,1.87
2023-04-21T19:27:47.887Z,2.47
2023-04-21T19:30:14.861Z,2.30
2023-04-21T19:32:41.901Z,2.30
2023-04-21T19:35:09.337Z,2.27
2023-04-21T19:37:36.936Z,2.17
2023-04-21T19:40:05.577Z,2.30
2023-04-21T19:42:32.611Z,2.93
2023-04-21T19:44:59.484Z,2.60
2023-04-21T19:47:27.782Z,2.97
2023-04-21T19:49:54.726Z,2.80
2023-04-21T19:52:21.654Z,2.50
2023-04-21T19:54:48.564Z,2.33
2023-04-21T19:57:16.038Z,3.07
2023-04-21T19:59:42.966Z,2.67
2023-04-21T20:02:10.093Z,2.87
2023-04-21T20:04:37.563Z,2.50
2023-04-21T20:07:04.802Z,2.97
2023-04-21T20:09:31.756Z,3.57
2023-04-21T20:11:58.609Z,3.73
2023-04-21T20:14:25.735Z,3.70
2023-04-21T20:16:52.717Z,3.80
2023-04-21T20:19:22.905Z,4.27
2023-04-21T20:21:50.171Z,4.47
2023-04-21T20:24:17.499Z,4.13
2023-04-21T20:26:45.286Z,4.17
2023-04-21T20:29:12.204Z,4.40
2023-04-21T20:31:39.313Z,4.23
2023-04-21T20:34:06.275Z,4.17
2023-04-21T20:36:33.566Z,5.03
2023-04-21T20:39:01.176Z,4.30
2023-04-21T20:41:28.354Z,5.37
2023-04-21T20:43:56.285Z,5.00
2023-04-21T20:46:23.865Z,5.30
2023-04-21T20:48:51.455Z,4.77
2023-04-21T20:51:18.469Z,4.57
2023-04-21T20:53:45.413Z,3.83
2023-04-21T20:56:12.376Z,3.43
2023-04-21T20:58:39.305Z,4.37
2023-04-21T21:01:06.353Z,4.30
2023-04-21T21:03:33.446Z,4.20
2023-04-21T21:06:00.613Z,4.50
2023-04-21T21:08:28.141Z,4.07
2023-04-21T21:10:55.046Z,4.17
2023-04-21T21:13:21.947Z,5.00
2023-04-21T21:15:49.024Z,4.13
2023-04-21T21:18:15.935Z,4.50
2023-04-21T21:20:43.100Z,4.03
2023-04-21T21:23:10.054Z,4.40
2023-04-21T21:25:37.025Z,3.73
2023-04-21T21:28:03.984Z,5.00
2023-04-21T21:30:30.969Z,4.53
2023-04-21T21:32:57.902Z,4.90
2023-04-21T21:35:24.986Z,4.63
2023-04-21T21:37:52.842Z,4.83
2023-04-21T21:40:19.851Z,6.93
2023-04-21T21:42:46.816Z,6.67
2023-04-21T21:45:13.805Z,5.33
2023-04-21T21:47:43.854Z,5.57
2023-04-21T21:50:12.678Z,5.17
2023-04-21T21:52:39.597Z,4.57
2023-04-21T21:55:07.976Z,5.27
2023-04-21T21:57:35.000Z,5.00
2023-04-21T22:00:02.261Z,5.00
2023-04-21T22:02:32.066Z,5.00
2023-04-21T22:04:59.712Z,6.33
2023-04-21T22:07:26.825Z,6.13
2023-04-21T22:09:53.773Z,6.73
2023-04-21T22:12:20.790Z,5.93
2023-04-21T22:14:47.710Z,5.53
2023-04-21T22:17:15.256Z,6.23
2023-04-21T22:19:42.149Z,6.37
2023-04-21T22:22:09.321Z,6.30
2023-04-21T22:24:36.216Z,6.93
2023-04-21T22:27:03.403Z,7.97
2023-04-21T22:29:31.106Z,7.97
2023-04-21T22:31:58.398Z,8.93
2023-04-21T22:34:25.358Z,8.90
2023-04-21T22:36:53.411Z,8.33
2023-04-21T22:39:20.712Z,8.67
2023-04-21T22:41:47.623Z,8.60
2023-04-21T22:44:14.799Z,9.53
2023-04-21T22:46:42.030Z,6.87
2023-04-21T22:49:09.508Z,6.43
2023-04-21T22:51:37.069Z,6.30
2023-04-21T22:54:04.358Z,6.40
2023-04-21T22:56:31.638Z,7.20
2023-04-21T22:58:58.851Z,7.63
2023-04-21T23:01:25.787Z,8.83
2023-04-21T23:03:52.890Z,9.70
2023-04-21T23:06:19.895Z,10.83
2023-04-21T23:08:46.808Z,7.67
2023-04-21T23:11:13.927Z,8.57
2023-04-21T23:13:41.016Z,8.37
2023-04-21T23:16:07.957Z,8.43
2023-04-21T23:18:35.827Z,6.97
2023-04-21T23:21:02.949Z,7.23
2023-04-21T23:23:29.992Z,7.23
2023-04-21T23:25:56.825Z,6.73
2023-04-21T23:28:24.444Z,9.73
2023-04-21T23:30:51.527Z,8.50
2023-04-21T23:33:18.648Z,8.90
2023-04-21T23:35:45.937Z,9.83
2023-04-21T23:38:13.010Z,7.93
2023-04-21T23:40:40.000Z,7.20
2023-04-21T23:43:07.544Z,6.57
2023-04-21T23:45:34.414Z,7.43
2023-04-21T23:48:01.347Z,8.17
2023-04-21T23:50:28.430Z,8.43
2023-04-21T23:52:55.930Z,8.37
2023-04-21T23:55:22.924Z,8.83
2023-04-21T23:57:49.931Z,10.43
